Portada
METAR-TAF:

METAR-TAF

Aeroports :

Loreto, Mèxic

latitud: 26-01N, longitud: 111-21W, altitud: 15 m

Observació

L'informe es va fer fa 58 minuts, a les 20:51 UTC
Vent 8 kt del Est/Sud-Est
Temperatura 35°C
Humitat 37%
Pressió 1008 hPa
Visibilitat: 16.1 km
Cel clar

METAR: MMLT 192051Z 11008KT 10SM SKC 35/18 A2976 RMK SLP078

Hora: 15:49 (21:49 UTC)

Pronòstic

L'informe es va fer fa 4 hores i 54 minuts, a les 16:55 UTC
Pronòstic vàlid del 19 a les 18 UTC al 20 a les 18 UTC
Vent 10 kt del Nord/Nord-Est
Visibilitat: 10 km
Cel clar
A partir de les 20 a les 0300 UTC
Vent kt del Nord
Visibilitat: 10 km
Cel clar

TAF: MMLT 191655Z 1918/2018 02010KT P6SM SKC FM200300 00000KT P6SM SKC

Observacions i pronòstics meteorològics de més de 4000 aeroports (METAR i TAF).

Les estacions disponibles són els punts grocs i vermells al mapa.

Posi el ratolí al punt desitjat per veure el nom de l'estació.

Feu clic per veure les observacions i els pronòstics meteorològics.

Per canviar el mapa: feu clic els botons verds amb una creu de color negre per apropar; al botó verd amb un guió per allunyar la imatge; o en les fletxes verdes per a mapes adjacents.


METAR-TAF: